createdAt,value
2023-03-07T00:02:40.840Z,96026.69
2023-03-07T00:07:35.774Z,96008.16
2023-03-07T00:12:29.098Z,96017.22
2023-03-07T00:17:22.540Z,96012.03
2023-03-07T00:22:15.889Z,96001.56
2023-03-07T00:27:10.674Z,96005.16
2023-03-07T00:32:04.112Z,95999.44
2023-03-07T00:36:57.553Z,96004.44
2023-03-07T00:41:50.935Z,95998.53
2023-03-07T00:46:45.668Z,96002.00
2023-03-07T00:51:39.203Z,96007.00
2023-03-07T00:56:32.530Z,96002.16
2023-03-07T01:01:27.014Z,95999.97
2023-03-07T01:06:25.267Z,95991.38
2023-03-07T01:11:19.143Z,95987.53
2023-03-07T01:16:16.589Z,95988.16
2023-03-07T01:21:16.215Z,95981.28
2023-03-07T01:26:14.486Z,95979.59
2023-03-07T01:31:07.980Z,95984.41
2023-03-07T01:36:01.606Z,95988.09
2023-03-07T01:40:55.066Z,95994.03
2023-03-07T01:46:48.766Z,95991.63
2023-03-07T01:51:50.333Z,95982.72
2023-03-07T01:56:46.557Z,95982.88
2023-03-07T02:01:40.491Z,95984.94
2023-03-07T02:06:38.441Z,95977.66
2023-03-07T02:11:33.317Z,95962.19
2023-03-07T02:16:27.135Z,95965.19
2023-03-07T02:21:34.161Z,95957.75
2023-03-07T02:26:44.223Z,95959.59
2023-03-07T02:31:37.713Z,95961.63
2023-03-07T02:36:36.116Z,95965.00
2023-03-07T02:41:34.194Z,95961.38
2023-03-07T02:46:28.896Z,95968.72
2023-03-07T02:51:22.455Z,95960.88
2023-03-07T02:56:15.997Z,95954.38
2023-03-07T03:01:09.338Z,95962.97
2023-03-07T03:06:04.121Z,95951.47
2023-03-07T03:10:57.496Z,95945.41
2023-03-07T03:15:51.690Z,95943.03
2023-03-07T03:20:44.994Z,95948.94
2023-03-07T03:25:40.260Z,95945.41
2023-03-07T03:30:36.079Z,95944.31
2023-03-07T03:35:29.720Z,95935.56
2023-03-07T03:40:23.173Z,95939.81
2023-03-07T03:45:18.376Z,95934.00
2023-03-07T03:50:12.787Z,95935.81
2023-03-07T03:55:07.179Z,95921.47
2023-03-07T04:00:00.488Z,95921.25
2023-03-07T04:04:55.142Z,95915.88
2023-03-07T04:09:48.423Z,95914.38
2023-03-07T04:14:41.698Z,95907.50
2023-03-07T04:19:35.015Z,95899.00
2023-03-07T04:24:29.990Z,95906.78
2023-03-07T04:29:23.246Z,95894.09
2023-03-07T04:34:16.585Z,95899.44
2023-03-07T04:39:09.898Z,95902.81
2023-03-07T04:44:04.668Z,95892.75
2023-03-07T04:48:58.053Z,95891.81
2023-03-07T04:53:51.457Z,95886.63
2023-03-07T04:58:45.971Z,95884.72
2023-03-07T05:03:40.685Z,95873.53
2023-03-07T05:08:35.307Z,95871.25
2023-03-07T05:13:28.964Z,95866.81
2023-03-07T05:18:22.750Z,95863.69
2023-03-07T05:23:18.334Z,95855.75
2023-03-07T05:28:11.688Z,95863.94
2023-03-07T05:33:05.342Z,95853.59
2023-03-07T05:37:58.771Z,95856.53
2023-03-07T05:42:53.380Z,95851.97
2023-03-07T05:47:46.700Z,95851.06
2023-03-07T05:52:40.434Z,95850.50
2023-03-07T05:57:33.859Z,95838.56
2023-03-07T06:02:28.589Z,95851.16
2023-03-07T06:07:21.955Z,95843.88
2023-03-07T06:12:15.258Z,95835.47
2023-03-07T06:17:08.560Z,95835.63
2023-03-07T06:22:03.241Z,95837.91
2023-03-07T06:26:56.636Z,95832.09
2023-03-07T06:31:51.105Z,95829.56
2023-03-07T06:36:44.541Z,95827.56
2023-03-07T06:41:39.222Z,95831.50
2023-03-07T06:46:32.540Z,95821.91
2023-03-07T06:51:25.956Z,95816.63
2023-03-07T06:56:19.261Z,95805.00
2023-03-07T07:01:19.494Z,95809.41
2023-03-07T07:06:12.885Z,95811.56
2023-03-07T07:11:06.809Z,95808.94
2023-03-07T07:16:06.889Z,95824.81
2023-03-07T07:21:01.794Z,95826.06
2023-03-07T07:25:55.180Z,95818.88
2023-03-07T07:30:48.479Z,95812.88
2023-03-07T07:35:45.212Z,95816.75
2023-03-07T07:40:40.305Z,95817.25
2023-03-07T07:45:33.684Z,95817.03
2023-03-07T07:50:27.172Z,95813.84
2023-03-07T07:55:20.456Z,95803.75
2023-03-07T08:00:21.174Z,95806.66
2023-03-07T08:05:14.462Z,95799.03
2023-03-07T08:10:10.105Z,95805.16
2023-03-07T08:15:03.841Z,95807.59
2023-03-07T08:20:01.679Z,95804.03
2023-03-07T08:24:55.235Z,95802.69
2023-03-07T08:29:51.151Z,95786.63
2023-03-07T08:34:44.515Z,95787.94
2023-03-07T08:39:39.300Z,95770.09
2023-03-07T08:44:32.577Z,95762.94
2023-03-07T08:49:25.995Z,95758.97
2023-03-07T08:54:19.509Z,95769.16
2023-03-07T08:59:14.176Z,95764.97
2023-03-07T09:04:07.592Z,95767.72
2023-03-07T09:09:01.000Z,95761.91
2023-03-07T09:13:54.311Z,95754.91
2023-03-07T09:18:49.048Z,95750.72
2023-03-07T09:23:44.109Z,95745.75
2023-03-07T09:28:37.397Z,95741.31
2023-03-07T09:33:30.686Z,95739.72
2023-03-07T09:38:25.379Z,95732.25
2023-03-07T09:43:21.948Z,95719.63
2023-03-07T09:49:05.074Z,95717.38
2023-03-07T09:54:04.829Z,95688.81
2023-03-07T09:59:20.445Z,95707.13
2023-03-07T10:04:27.485Z,95703.06
2023-03-07T10:09:25.954Z,95688.50
2023-03-07T10:14:40.581Z,95662.34
2023-03-07T10:19:45.962Z,95665.31
2023-03-07T10:25:14.323Z,95661.59
2023-03-07T10:30:17.964Z,95645.03
2023-03-07T10:35:21.048Z,95625.88
2023-03-07T10:40:28.108Z,95614.44
2023-03-07T10:45:21.819Z,95603.81
2023-03-07T10:50:30.648Z,95592.81
2023-03-07T10:55:41.169Z,95594.13
2023-03-07T11:00:34.747Z,95602.22
2023-03-07T11:05:33.240Z,95578.22
2023-03-07T11:10:36.854Z,95568.25
2023-03-07T11:15:30.274Z,95577.91
2023-03-07T11:20:30.242Z,95571.53
2023-03-07T11:25:26.706Z,95565.00
2023-03-07T11:30:26.281Z,95560.75
2023-03-07T11:35:24.609Z,95556.69
2023-03-07T11:40:26.081Z,95536.06
2023-03-07T11:45:36.630Z,95555.19
2023-03-07T11:50:33.204Z,95535.00
2023-03-07T11:55:36.288Z,95530.19
2023-03-07T12:00:44.432Z,95530.59
2023-03-07T12:06:02.648Z,95530.63
2023-03-07T12:11:16.612Z,95524.44
2023-03-07T12:16:27.416Z,95521.00
2023-03-07T12:21:43.480Z,95500.00
2023-03-07T12:26:49.816Z,95487.34
2023-03-07T12:31:50.325Z,95474.72
2023-03-07T12:36:49.977Z,95464.84
2023-03-07T12:41:58.595Z,95460.47
2023-03-07T12:47:02.332Z,95460.75
2023-03-07T12:52:01.079Z,95440.13
2023-03-07T12:56:58.743Z,95440.00
2023-03-07T13:02:03.315Z,95446.72
2023-03-07T13:07:07.072Z,95461.28
2023-03-07T13:12:36.040Z,95452.47
2023-03-07T13:18:00.667Z,95437.94
2023-03-07T13:23:22.849Z,95432.56
2023-03-07T13:28:51.464Z,95431.47
2023-03-07T13:33:48.170Z,95423.09
2023-03-07T13:38:45.039Z,95411.84
2023-03-07T13:44:03.327Z,95395.50
2023-03-07T13:49:05.070Z,95399.75
2023-03-07T13:54:04.329Z,95403.34
2023-03-07T13:59:02.336Z,95416.78
2023-03-07T14:04:03.494Z,95413.47
2023-03-07T14:09:02.699Z,95407.44
2023-03-07T14:14:31.284Z,95429.69
2023-03-07T14:19:48.077Z,95414.03
2023-03-07T14:25:34.845Z,95409.63
2023-03-07T14:30:33.060Z,95413.88
2023-03-07T14:35:40.267Z,95422.13
2023-03-07T14:40:47.946Z,95431.91
2023-03-07T14:45:50.500Z,95421.88
2023-03-07T14:50:45.902Z,95429.84
2023-03-07T14:55:43.002Z,95430.09
2023-03-07T15:00:36.386Z,95434.66
2023-03-07T15:05:34.536Z,95440.13
2023-03-07T15:10:36.517Z,95434.25
2023-03-07T15:15:34.894Z,95439.88
2023-03-07T15:20:31.439Z,95443.16
2023-03-07T15:25:26.197Z,95447.63
2023-03-07T15:30:31.004Z,95449.56
2023-03-07T15:35:24.409Z,95461.94
2023-03-07T15:40:30.295Z,95462.72
2023-03-07T15:45:33.093Z,95450.47
2023-03-07T15:50:29.707Z,95451.97
2023-03-07T15:55:28.032Z,95452.75
2023-03-07T16:00:27.869Z,95451.16
2023-03-07T16:05:38.981Z,95452.19
2023-03-07T16:10:33.934Z,95466.13
2023-03-07T16:15:28.284Z,95469.16
2023-03-07T16:20:26.364Z,95477.09
2023-03-07T16:25:20.649Z,95470.84
2023-03-07T16:30:19.583Z,95480.75
2023-03-07T16:35:18.535Z,95482.16
2023-03-07T16:40:14.806Z,95483.63
2023-03-07T16:45:21.155Z,95479.53
2023-03-07T16:50:16.897Z,95484.13
2023-03-07T16:55:14.415Z,95502.94
2023-03-07T17:00:13.817Z,95514.03
2023-03-07T17:05:18.181Z,95519.13
2023-03-07T17:10:16.266Z,95531.56
2023-03-07T17:15:15.183Z,95558.94
2023-03-07T17:20:14.578Z,95561.81
2023-03-07T17:25:09.086Z,95584.00
2023-03-07T17:30:02.454Z,95586.91
2023-03-07T17:34:55.857Z,95582.53
2023-03-07T17:39:50.559Z,95607.56
2023-03-07T17:44:43.852Z,95606.72
2023-03-07T17:49:39.550Z,95619.25
2023-03-07T17:54:33.867Z,95621.38
2023-03-07T17:59:28.565Z,95639.09
2023-03-07T18:04:21.832Z,95644.47
2023-03-07T18:09:18.716Z,95647.53
2023-03-07T18:14:12.680Z,95651.28
2023-03-07T18:19:14.230Z,95666.22
2023-03-07T18:24:20.496Z,95674.13
2023-03-07T18:29:24.045Z,95672.94
2023-03-07T18:34:18.848Z,95677.78
2023-03-07T18:39:12.380Z,95678.50
2023-03-07T18:44:05.833Z,95680.97
2023-03-07T18:49:01.317Z,95666.44
2023-03-07T18:53:59.248Z,95678.50
2023-03-07T18:58:56.087Z,95689.38
2023-03-07T19:03:51.996Z,95691.97
2023-03-07T19:08:45.485Z,95707.72
2023-03-07T19:13:41.266Z,95709.97
2023-03-07T19:18:37.204Z,95707.31
2023-03-07T19:23:30.452Z,95730.75
2023-03-07T19:28:23.797Z,95728.38
2023-03-07T19:33:18.498Z,95735.66
2023-03-07T19:38:11.751Z,95742.81
2023-03-07T19:43:06.761Z,95746.41
2023-03-07T19:48:00.169Z,95747.03
2023-03-07T19:52:57.378Z,95753.66
2023-03-07T19:57:50.694Z,95745.91
2023-03-07T20:02:44.012Z,95758.88
2023-03-07T20:07:37.730Z,95761.06
2023-03-07T20:12:34.717Z,95765.56
2023-03-07T20:17:28.082Z,95771.13
2023-03-07T20:22:23.436Z,95772.16
2023-03-07T20:27:20.456Z,95773.00
2023-03-07T20:32:15.155Z,95780.66
2023-03-07T20:37:08.428Z,95783.38
2023-03-07T20:42:01.654Z,95795.47
2023-03-07T20:46:55.694Z,95796.25
2023-03-07T20:51:50.481Z,95805.22
2023-03-07T20:56:44.846Z,95808.16
2023-03-07T21:01:39.028Z,95824.06
2023-03-07T21:06:32.431Z,95821.16
2023-03-07T21:11:31.288Z,95818.34
2023-03-07T21:16:27.241Z,95827.38
2023-03-07T21:21:22.988Z,95836.78
2023-03-07T21:26:20.079Z,95827.28
2023-03-07T21:31:21.240Z,95833.28
2023-03-07T21:36:16.181Z,95831.81
2023-03-07T21:41:09.661Z,95833.22
2023-03-07T21:46:06.053Z,95840.25
2023-03-07T21:51:02.931Z,95850.81
2023-03-07T21:56:01.604Z,95863.69
2023-03-07T22:00:57.991Z,95863.31
2023-03-07T22:05:51.765Z,95873.13
2023-03-07T22:10:57.320Z,95884.22
2023-03-07T22:15:50.654Z,95877.69
2023-03-07T22:20:44.038Z,95877.78
2023-03-07T22:25:37.336Z,95877.41
2023-03-07T22:30:32.167Z,95881.44
2023-03-07T22:35:25.564Z,95877.28
2023-03-07T22:40:19.867Z,95883.09
2023-03-07T22:45:14.207Z,95890.50
2023-03-07T22:50:10.683Z,95877.28
2023-03-07T22:55:04.314Z,95883.84
2023-03-07T22:59:57.752Z,95880.81
2023-03-07T23:04:53.169Z,95888.50
2023-03-07T23:09:47.963Z,95883.03
2023-03-07T23:14:41.320Z,95876.06
2023-03-07T23:19:34.660Z,95883.97
2023-03-07T23:24:28.064Z,95883.81
2023-03-07T23:29:22.804Z,95880.94
2023-03-07T23:34:18.881Z,95874.84
2023-03-07T23:39:12.295Z,95868.44
2023-03-07T23:44:06.246Z,95872.78
2023-03-07T23:49:01.224Z,95878.72
2023-03-07T23:53:54.534Z,95881.00
2023-03-07T23:58:50.956Z,95868.16
